createdAt,value
2023-02-21T00:02:44.083Z,95811.72
2023-02-21T00:05:30.319Z,95815.69
2023-02-21T00:08:17.889Z,95820.69
2023-02-21T00:11:04.552Z,95812.91
2023-02-21T00:13:51.201Z,95821.41
2023-02-21T00:16:36.994Z,95815.25
2023-02-21T00:19:23.506Z,95829.81
2023-02-21T00:22:10.059Z,95834.38
2023-02-21T00:24:57.283Z,95824.78
2023-02-21T00:27:44.231Z,95806.63
2023-02-21T00:30:32.150Z,95837.97
2023-02-21T00:33:18.682Z,95827.22
2023-02-21T00:36:04.282Z,95829.91
2023-02-21T00:38:50.104Z,95823.59
2023-02-21T00:41:37.124Z,95820.81
2023-02-21T00:44:22.519Z,95780.88
2023-02-21T00:47:08.280Z,95824.59
2023-02-21T00:49:53.676Z,95817.88
2023-02-21T00:52:39.236Z,95811.69
2023-02-21T00:55:25.680Z,95822.16
2023-02-21T00:58:12.711Z,95815.41
2023-02-21T01:00:58.851Z,95811.13
2023-02-21T01:03:44.576Z,95819.91
2023-02-21T01:06:31.603Z,95814.38
2023-02-21T01:09:17.298Z,95809.00
2023-02-21T01:12:02.624Z,95820.31
2023-02-21T01:14:49.953Z,95778.69
2023-02-21T01:17:35.798Z,95815.22
2023-02-21T01:20:21.325Z,95804.41
2023-02-21T01:23:06.843Z,95801.72
2023-02-21T01:25:52.337Z,95748.94
2023-02-21T01:28:38.767Z,95803.34
2023-02-21T01:31:25.909Z,95799.19
2023-02-21T01:34:12.223Z,95797.88
2023-02-21T01:36:59.980Z,95798.78
2023-02-21T01:39:45.554Z,95788.75
2023-02-21T01:42:32.223Z,95788.25
2023-02-21T01:46:00.040Z,95786.19
2023-02-21T01:48:48.876Z,95770.41
2023-02-21T01:51:39.373Z,95777.78
2023-02-21T01:54:27.045Z,95773.38
2023-02-21T01:57:15.598Z,95781.25
2023-02-21T02:00:01.841Z,95769.44
2023-02-21T02:02:53.890Z,95747.50
2023-02-21T02:05:41.471Z,95771.78
2023-02-21T02:08:27.741Z,95764.47
2023-02-21T02:11:28.319Z,95763.47
2023-02-21T02:14:15.077Z,95773.50
2023-02-21T02:16:49.045Z,95776.81
2023-02-21T02:19:38.940Z,95743.97
2023-02-21T02:22:38.563Z,95780.56
2023-02-21T02:25:28.525Z,95766.25
2023-02-21T02:28:20.229Z,95709.28
2023-02-21T02:31:29.192Z,95751.81
2023-02-21T02:34:35.710Z,95747.53
2023-02-21T02:37:14.697Z,95722.13
2023-02-21T02:39:48.816Z,95745.63
2023-02-21T02:42:27.421Z,95675.53
2023-02-21T02:45:01.294Z,95713.94
2023-02-21T02:47:36.037Z,95741.13
2023-02-21T02:50:09.279Z,95732.03
2023-02-21T02:52:39.221Z,95740.56
2023-02-21T02:55:30.017Z,95725.59
2023-02-21T02:57:58.975Z,95745.16
2023-02-21T03:00:27.989Z,95726.63
2023-02-21T03:03:11.280Z,95734.50
2023-02-21T03:05:56.219Z,95728.34
2023-02-21T03:08:32.688Z,95737.19
2023-02-21T03:11:07.175Z,95724.56
2023-02-21T03:13:42.581Z,95727.03
2023-02-21T03:16:17.266Z,95725.16
2023-02-21T03:18:50.741Z,95733.75
2023-02-21T03:21:24.244Z,95711.03
2023-02-21T03:23:56.124Z,95736.75
2023-02-21T03:26:24.705Z,95731.03
2023-02-21T03:28:53.893Z,95738.66
2023-02-21T03:31:28.753Z,95739.50
2023-02-21T03:33:57.697Z,95743.50
2023-02-21T03:36:28.370Z,95737.06
2023-02-21T03:38:57.010Z,95740.94
2023-02-21T03:41:26.015Z,95744.63
2023-02-21T03:43:54.619Z,95751.91
2023-02-21T03:46:22.987Z,95714.84
2023-02-21T03:48:51.407Z,95724.06
2023-02-21T03:51:21.977Z,95725.41
2023-02-21T03:53:51.724Z,95730.88
2023-02-21T03:56:24.333Z,95717.84
2023-02-21T03:58:54.512Z,95695.88
2023-02-21T04:01:24.701Z,95723.47
2023-02-21T04:03:53.658Z,95735.47
2023-02-21T04:06:22.975Z,95707.31
2023-02-21T04:08:53.747Z,95713.81
2023-02-21T04:11:23.573Z,95723.22
2023-02-21T04:13:54.551Z,95713.72
2023-02-21T04:16:23.263Z,95699.88
2023-02-21T04:18:51.619Z,95711.03
2023-02-21T04:21:20.486Z,95650.00
2023-02-21T04:23:49.166Z,95708.28
2023-02-21T04:26:20.375Z,95700.44
2023-02-21T04:28:49.047Z,95699.81
2023-02-21T04:31:18.658Z,95694.56
2023-02-21T04:33:48.275Z,95681.88
2023-02-21T04:36:17.220Z,95671.16
2023-02-21T04:38:45.539Z,95654.16
2023-02-21T04:41:15.301Z,95678.69
2023-02-21T04:43:46.913Z,95673.91
2023-02-21T04:46:17.700Z,95664.13
2023-02-21T04:48:47.054Z,95654.22
2023-02-21T04:51:16.478Z,95661.91
2023-02-21T04:53:46.843Z,95648.25
2023-02-21T04:56:15.236Z,95660.31
2023-02-21T04:58:46.355Z,95618.75
2023-02-21T05:01:16.370Z,95652.22
2023-02-21T05:03:45.314Z,95668.88
2023-02-21T05:06:20.258Z,95663.56
2023-02-21T05:08:50.845Z,95623.22
2023-02-21T05:11:21.991Z,95667.19
2023-02-21T05:13:52.456Z,95668.31
2023-02-21T05:16:21.704Z,95602.41
2023-02-21T05:18:50.545Z,95659.78
2023-02-21T05:21:21.682Z,95665.63
2023-02-21T05:23:56.987Z,95653.88
2023-02-21T05:26:27.978Z,95659.09
2023-02-21T05:28:57.741Z,95665.81
2023-02-21T05:31:26.123Z,95676.91
2023-02-21T05:33:55.446Z,95660.09
2023-02-21T05:36:25.493Z,95693.47
2023-02-21T05:38:57.243Z,95675.22
2023-02-21T05:41:25.847Z,95704.19
2023-02-21T05:43:55.859Z,95704.81
2023-02-21T05:46:29.762Z,95710.00
2023-02-21T05:48:59.762Z,95706.31
2023-02-21T05:51:28.956Z,95710.63
2023-02-21T05:53:58.539Z,95711.84
2023-02-21T05:56:26.887Z,95681.34
2023-02-21T05:58:55.195Z,95695.16
2023-02-21T06:01:23.627Z,95708.28
2023-02-21T06:03:53.611Z,95705.72
2023-02-21T06:06:22.009Z,95694.81
2023-02-21T06:08:51.939Z,95693.16
2023-02-21T06:11:27.029Z,95659.09
2023-02-21T06:13:58.333Z,95696.25
2023-02-21T06:16:27.073Z,95649.78
2023-02-21T06:18:58.476Z,95708.13
2023-02-21T06:21:28.274Z,95672.72
2023-02-21T06:23:56.813Z,95732.03
2023-02-21T06:26:25.270Z,95705.88
2023-02-21T06:28:53.741Z,95715.59
2023-02-21T06:31:22.777Z,95705.38
2023-02-21T06:33:52.046Z,95717.31
2023-02-21T06:36:23.819Z,95716.28
2023-02-21T06:38:55.167Z,95731.56
2023-02-21T06:41:26.644Z,95743.03
2023-02-21T06:43:56.130Z,95741.50
2023-02-21T06:46:27.150Z,95747.34
2023-02-21T06:48:55.588Z,95744.16
2023-02-21T06:51:29.825Z,95737.75
2023-02-21T06:53:59.227Z,95750.53
2023-02-21T06:56:28.798Z,95747.28
2023-02-21T06:58:57.395Z,95753.19
2023-02-21T07:01:28.226Z,95756.91
2023-02-21T07:03:57.702Z,95769.94
2023-02-21T07:06:29.698Z,95727.75
2023-02-21T07:08:58.428Z,95710.63
2023-02-21T07:11:26.950Z,95745.34
2023-02-21T07:13:59.592Z,95754.19
2023-02-21T07:16:28.455Z,95758.00
2023-02-21T07:18:56.914Z,95761.75
2023-02-21T07:21:28.543Z,95739.22
2023-02-21T07:23:56.918Z,95757.28
2023-02-21T07:26:25.223Z,95751.72
2023-02-21T07:28:53.768Z,95741.19
2023-02-21T07:31:22.485Z,95745.72
2023-02-21T07:33:51.160Z,95760.81
2023-02-21T07:36:19.878Z,95753.84
2023-02-21T07:38:49.648Z,95777.72
2023-02-21T07:41:18.991Z,95773.13
2023-02-21T07:43:47.299Z,95783.00
2023-02-21T07:46:18.096Z,95782.03
2023-02-21T07:48:47.285Z,95761.31
2023-02-21T07:51:16.166Z,95782.59
2023-02-21T07:53:44.686Z,95778.72
2023-02-21T07:56:14.701Z,95796.03
2023-02-21T07:58:43.015Z,95804.59
2023-02-21T08:01:11.361Z,95800.63
2023-02-21T08:03:41.025Z,95794.16
2023-02-21T08:06:11.236Z,95804.09
2023-02-21T08:08:39.712Z,95816.22
2023-02-21T08:11:08.105Z,95804.16
2023-02-21T08:13:37.935Z,95802.03
2023-02-21T08:16:06.882Z,95808.53
2023-02-21T08:18:35.227Z,95806.69
2023-02-21T08:21:03.547Z,95802.66
2023-02-21T08:23:32.240Z,95801.72
2023-02-21T08:26:00.637Z,95805.03
2023-02-21T08:28:29.054Z,95799.66
2023-02-21T08:30:58.835Z,95815.88
2023-02-21T08:33:27.366Z,95812.81
2023-02-21T08:35:55.734Z,95822.94
2023-02-21T08:38:24.062Z,95818.63
2023-02-21T08:40:52.886Z,95819.66
2023-02-21T08:43:21.508Z,95820.91
2023-02-21T08:45:50.188Z,95824.84
2023-02-21T08:48:19.923Z,95827.81
2023-02-21T08:50:48.223Z,95814.97
2023-02-21T08:53:16.877Z,95829.34
2023-02-21T08:55:45.433Z,95824.81
2023-02-21T08:58:14.242Z,95829.06
2023-02-21T09:00:43.015Z,95817.81
2023-02-21T09:03:11.465Z,95829.91
2023-02-21T09:05:41.547Z,95832.91
2023-02-21T09:08:10.644Z,95834.56
2023-02-21T09:10:41.000Z,95825.44
2023-02-21T09:13:09.404Z,95824.69
2023-02-21T09:15:38.761Z,95816.06
2023-02-21T09:18:07.839Z,95828.03
2023-02-21T09:20:38.035Z,95824.97
2023-02-21T09:23:07.857Z,95821.44
2023-02-21T09:25:36.253Z,95761.75
2023-02-21T09:28:04.647Z,95819.53
2023-02-21T09:30:33.141Z,95819.53
2023-02-21T09:33:01.515Z,95825.44
2023-02-21T09:35:31.072Z,95827.84
2023-02-21T09:38:00.448Z,95831.69
2023-02-21T09:40:37.881Z,95810.63
2023-02-21T09:43:10.049Z,95823.59
2023-02-21T09:45:39.843Z,95825.22
2023-02-21T09:48:11.107Z,95833.00
2023-02-21T09:50:44.176Z,95832.50
2023-02-21T09:53:17.814Z,95830.09
2023-02-21T09:55:50.083Z,95824.44
2023-02-21T09:58:21.343Z,95828.03
2023-02-21T10:00:50.482Z,95759.50
2023-02-21T10:03:45.285Z,95823.78
2023-02-21T10:06:23.075Z,95832.59
2023-02-21T10:08:58.869Z,95791.34
2023-02-21T10:11:42.934Z,95821.94
2023-02-21T10:14:18.900Z,95835.28
2023-02-21T10:16:54.158Z,95823.78
2023-02-21T10:19:30.432Z,95822.69
2023-02-21T10:22:00.115Z,95826.53
2023-02-21T10:24:30.058Z,95791.44
2023-02-21T10:27:04.206Z,95829.50
2023-02-21T10:29:40.723Z,95819.53
2023-02-21T10:32:10.174Z,95811.25
2023-02-21T10:34:38.676Z,95815.88
2023-02-21T10:37:23.622Z,95808.41
2023-02-21T10:39:55.814Z,95822.31
2023-02-21T10:42:33.320Z,95821.28
2023-02-21T10:45:03.193Z,95822.84
2023-02-21T10:47:45.178Z,95827.47
2023-02-21T10:50:14.632Z,95804.03
2023-02-21T10:52:49.874Z,95822.47
2023-02-21T10:55:32.142Z,95816.56
2023-02-21T10:58:10.795Z,95816.03
2023-02-21T11:00:42.701Z,95809.47
2023-02-21T11:03:24.078Z,95810.84
2023-02-21T11:05:53.785Z,95807.94
2023-02-21T11:08:38.189Z,95801.75
2023-02-21T11:11:07.097Z,95807.66
2023-02-21T11:13:37.353Z,95804.97
2023-02-21T11:16:13.968Z,95806.31
2023-02-21T11:18:42.384Z,95799.34
2023-02-21T11:21:15.958Z,95799.63
2023-02-21T11:23:50.412Z,95804.16
2023-02-21T11:26:18.887Z,95792.31
2023-02-21T11:28:49.516Z,95793.97
2023-02-21T11:31:23.254Z,95790.19
2023-02-21T11:33:53.614Z,95781.56
2023-02-21T11:36:27.721Z,95789.66
2023-02-21T11:39:05.747Z,95777.31
2023-02-21T11:41:39.242Z,95779.72
2023-02-21T11:44:31.458Z,95784.28
2023-02-21T11:47:08.566Z,95783.22
2023-02-21T11:49:51.041Z,95743.88
2023-02-21T11:52:26.123Z,95758.16
2023-02-21T11:54:54.482Z,95764.38
2023-02-21T11:57:31.656Z,95756.81
2023-02-21T12:00:16.451Z,95728.25
2023-02-21T12:03:01.655Z,95754.63
2023-02-21T12:05:43.319Z,95743.31
2023-02-21T12:08:28.970Z,95752.72
2023-02-21T12:11:23.670Z,95768.09
2023-02-21T12:14:02.924Z,95757.28
2023-02-21T12:16:44.368Z,95758.91
2023-02-21T12:19:27.125Z,95743.03
2023-02-21T12:22:09.214Z,95749.78
2023-02-21T12:24:56.087Z,95746.53
2023-02-21T12:27:46.609Z,95752.47
2023-02-21T12:30:41.323Z,95734.16
2023-02-21T12:33:25.958Z,95707.75
2023-02-21T12:36:17.416Z,95733.56
2023-02-21T12:39:01.570Z,95732.22
2023-02-21T12:41:47.111Z,95717.38
2023-02-21T12:44:18.640Z,95717.34
2023-02-21T12:46:52.504Z,95719.19
2023-02-21T12:49:27.103Z,95720.16
2023-02-21T12:52:01.185Z,95633.25
2023-02-21T12:54:40.738Z,95708.31
2023-02-21T12:57:14.403Z,95716.00
2023-02-21T12:59:50.394Z,95711.47
2023-02-21T13:02:26.914Z,95710.09
2023-02-21T13:05:01.876Z,95705.81
2023-02-21T13:07:38.272Z,95704.72
2023-02-21T13:10:14.180Z,95700.66
2023-02-21T13:12:48.582Z,95699.03
2023-02-21T13:15:22.137Z,95659.81
2023-02-21T13:18:00.082Z,95684.81
2023-02-21T13:20:34.684Z,95677.44
2023-02-21T13:23:40.263Z,95685.06
2023-02-21T13:26:25.140Z,95680.78
2023-02-21T13:28:55.038Z,95684.88
2023-02-21T13:31:27.050Z,95685.94
2023-02-21T13:33:58.961Z,95678.88
2023-02-21T13:36:32.373Z,95656.75
2023-02-21T13:39:04.336Z,95681.00
2023-02-21T13:41:37.183Z,95682.03
2023-02-21T13:44:10.960Z,95722.56
2023-02-21T13:46:57.602Z,95683.22
2023-02-21T13:49:47.829Z,95678.78
2023-02-21T13:52:53.453Z,95680.91
2023-02-21T13:55:29.947Z,95669.88
2023-02-21T13:58:45.227Z,95664.25
2023-02-21T14:01:48.080Z,95672.03
2023-02-21T14:05:01.852Z,95664.78
2023-02-21T14:07:58.149Z,95632.75
2023-02-21T14:10:37.687Z,95671.28
2023-02-21T14:13:09.150Z,95665.34
2023-02-21T14:15:43.858Z,95658.88
2023-02-21T14:18:29.194Z,95665.91
2023-02-21T14:20:59.285Z,95669.69
2023-02-21T14:23:54.386Z,95659.97
2023-02-21T14:26:44.770Z,95665.91
2023-02-21T14:29:35.331Z,95656.78
2023-02-21T14:32:36.117Z,95661.38
2023-02-21T14:35:22.515Z,95632.84
2023-02-21T14:37:56.326Z,95659.19
2023-02-21T14:40:36.160Z,95646.56
2023-02-21T14:43:34.484Z,95675.09
2023-02-21T14:46:31.365Z,95652.41
2023-02-21T14:49:21.170Z,95654.56
2023-02-21T14:52:12.811Z,95650.75
2023-02-21T14:55:13.605Z,95655.13
2023-02-21T14:58:03.641Z,95648.94
2023-02-21T15:00:41.571Z,95633.66
2023-02-21T15:03:16.291Z,95615.13
2023-02-21T15:05:54.643Z,95655.25
2023-02-21T15:08:25.766Z,95646.03
2023-02-21T15:10:58.110Z,95632.59
2023-02-21T15:13:30.184Z,95642.28
2023-02-21T15:16:01.259Z,95629.88
2023-02-21T15:18:31.798Z,95626.88
2023-02-21T15:21:09.166Z,95634.69
2023-02-21T15:23:38.028Z,95617.03
2023-02-21T15:26:22.126Z,95631.22
2023-02-21T15:29:08.630Z,95622.13
2023-02-21T15:31:40.643Z,95626.19
2023-02-21T15:34:18.637Z,95628.84
2023-02-21T15:36:49.237Z,95591.00
2023-02-21T15:39:25.261Z,95612.22
2023-02-21T15:41:59.801Z,95630.25
2023-02-21T15:44:33.117Z,95636.16
2023-02-21T15:47:05.183Z,95636.44
2023-02-21T15:49:39.623Z,95639.69
2023-02-21T15:52:08.413Z,95639.69
2023-02-21T15:54:38.613Z,95646.69
2023-02-21T15:57:23.813Z,95645.59
2023-02-21T16:00:18.354Z,95646.69
2023-02-21T16:02:47.187Z,95591.03
2023-02-21T16:05:26.942Z,95625.44
2023-02-21T16:07:55.682Z,95641.88
2023-02-21T16:10:26.292Z,95604.19
2023-02-21T16:13:00.243Z,95612.53
2023-02-21T16:15:32.454Z,95638.66
2023-02-21T16:18:04.049Z,95647.28
2023-02-21T16:20:34.341Z,95641.09
2023-02-21T16:23:25.674Z,95636.25
2023-02-21T16:26:02.810Z,95641.69
2023-02-21T16:28:32.693Z,95659.19
2023-02-21T16:31:04.120Z,95638.22
2023-02-21T16:33:33.141Z,95660.56
2023-02-21T16:36:06.599Z,95658.16
2023-02-21T16:38:35.103Z,95650.06
2023-02-21T16:41:03.526Z,95660.84
2023-02-21T16:43:32.237Z,95657.63
2023-02-21T16:46:02.351Z,95655.22
2023-02-21T16:48:33.590Z,95660.34
2023-02-21T16:51:03.661Z,95625.88
2023-02-21T16:53:32.705Z,95554.63
2023-02-21T16:56:03.901Z,95666.81
2023-02-21T16:58:35.944Z,95664.38
2023-02-21T17:01:08.998Z,95667.63
2023-02-21T17:03:37.311Z,95595.81
2023-02-21T17:06:06.665Z,95674.09
2023-02-21T17:08:34.943Z,95594.47
2023-02-21T17:11:03.408Z,95666.56
2023-02-21T17:13:31.869Z,95679.47
2023-02-21T17:16:00.596Z,95672.47
2023-02-21T17:18:31.650Z,95600.66
2023-02-21T17:21:00.400Z,95690.28
2023-02-21T17:23:29.938Z,95695.94
2023-02-21T17:25:58.414Z,95692.97
2023-02-21T17:28:26.880Z,95702.94
2023-02-21T17:30:55.556Z,95652.34
2023-02-21T17:33:24.189Z,95706.44
2023-02-21T17:35:56.155Z,95686.25
2023-02-21T17:38:24.662Z,95698.38
2023-02-21T17:40:53.637Z,95692.16
2023-02-21T17:43:21.989Z,95704.03
2023-02-21T17:45:50.684Z,95697.81
2023-02-21T17:48:18.922Z,95704.84
2023-02-21T17:50:47.533Z,95694.34
2023-02-21T17:53:17.728Z,95706.72
2023-02-21T17:55:46.181Z,95694.59
2023-02-21T17:58:14.608Z,95668.50
2023-02-21T18:00:43.303Z,95697.84
2023-02-21T18:03:11.999Z,95705.38
2023-02-21T18:05:40.691Z,95714.81
2023-02-21T18:08:09.050Z,95602.78
2023-02-21T18:10:38.865Z,95707.53
2023-02-21T18:13:07.185Z,95707.81
2023-02-21T18:15:35.776Z,95664.44
2023-02-21T18:18:08.214Z,95710.78
2023-02-21T18:20:37.001Z,95595.19
2023-02-21T18:23:08.197Z,95693.50
2023-02-21T18:25:38.475Z,95709.66
2023-02-21T18:28:06.866Z,95708.03
2023-02-21T18:30:35.728Z,95715.31
2023-02-21T18:33:04.167Z,95707.22
2023-02-21T18:35:32.590Z,95707.19
2023-02-21T18:38:01.346Z,95708.78
2023-02-21T18:40:37.771Z,95619.34
2023-02-21T18:43:07.688Z,95717.13
2023-02-21T18:45:36.061Z,95717.41
2023-02-21T18:48:04.732Z,95653.28
2023-02-21T18:50:33.097Z,95718.50
2023-02-21T18:53:02.440Z,95713.66
2023-02-21T18:55:30.905Z,95703.94
2023-02-21T18:57:59.749Z,95677.78
2023-02-21T19:00:30.687Z,95718.47
2023-02-21T19:02:59.562Z,95698.00
2023-02-21T19:05:28.985Z,95710.09
2023-02-21T19:07:57.264Z,95706.06
2023-02-21T19:10:27.061Z,95692.56
2023-02-21T19:12:55.505Z,95697.72
2023-02-21T19:15:23.901Z,95707.66
2023-02-21T19:17:54.334Z,95702.28
2023-02-21T19:20:22.681Z,95701.75
2023-02-21T19:22:52.298Z,95704.13
2023-02-21T19:25:21.280Z,95708.97
2023-02-21T19:27:49.621Z,95641.38
2023-02-21T19:30:20.229Z,95701.72
2023-02-21T19:32:48.858Z,95692.31
2023-02-21T19:35:18.642Z,95695.00
2023-02-21T19:37:47.030Z,95702.81
2023-02-21T19:40:15.582Z,95700.66
2023-02-21T19:42:43.934Z,95651.88
2023-02-21T19:45:12.265Z,95707.41
2023-02-21T19:47:40.753Z,95707.41
2023-02-21T19:50:09.435Z,95707.94
2023-02-21T19:52:40.180Z,95707.94
2023-02-21T19:55:09.662Z,95703.09
2023-02-21T19:57:38.598Z,95705.50
2023-02-21T20:00:10.899Z,95689.88
2023-02-21T20:02:39.233Z,95666.66
2023-02-21T20:05:08.892Z,95712.22
2023-02-21T20:07:39.003Z,95701.69
2023-02-21T20:10:08.722Z,95708.47
2023-02-21T20:12:37.094Z,95704.94
2023-02-21T20:15:05.845Z,95707.94
2023-02-21T20:17:36.439Z,95721.63
2023-02-21T20:20:06.732Z,95714.63
2023-02-21T20:22:35.114Z,95645.91
2023-02-21T20:25:05.118Z,95726.72
2023-02-21T20:27:33.441Z,95711.38
2023-02-21T20:30:01.893Z,95728.06
2023-02-21T20:32:30.190Z,95728.06
2023-02-21T20:34:58.504Z,95703.25
2023-02-21T20:37:31.338Z,95726.16
2023-02-21T20:40:02.130Z,95711.03
2023-02-21T20:42:31.969Z,95719.97
2023-02-21T20:45:02.178Z,95705.38
2023-02-21T20:47:30.758Z,95722.66
2023-02-21T20:49:59.476Z,95723.19
2023-02-21T20:52:28.249Z,95726.13
2023-02-21T20:54:56.588Z,95722.59
2023-02-21T20:57:24.899Z,95707.81
2023-02-21T20:59:54.994Z,95668.75
2023-02-21T21:02:24.600Z,95722.06
2023-02-21T21:04:54.509Z,95720.19
2023-02-21T21:07:25.459Z,95691.91
2023-02-21T21:09:53.861Z,95711.31
2023-02-21T21:12:25.197Z,95675.69
2023-02-21T21:14:55.099Z,95714.53
2023-02-21T21:17:23.420Z,95717.22
2023-02-21T21:19:53.510Z,95681.09
2023-02-21T21:22:24.567Z,95717.50
2023-02-21T21:24:54.282Z,95715.06
2023-02-21T21:27:23.529Z,95712.38
2023-02-21T21:29:55.339Z,95702.44
2023-02-21T21:32:25.265Z,95711.84
2023-02-21T21:34:55.662Z,95714.00
2023-02-21T21:37:26.688Z,95705.38
2023-02-21T21:39:56.371Z,95707.81
2023-02-21T21:42:27.307Z,95692.44
2023-02-21T21:44:58.123Z,95701.84
2023-02-21T21:47:28.106Z,95706.44
2023-02-21T21:49:56.676Z,95687.59
2023-02-21T21:52:25.080Z,95710.50
2023-02-21T21:54:53.367Z,95711.56
2023-02-21T21:57:22.929Z,95709.66
2023-02-21T21:59:52.050Z,95700.19
2023-02-21T22:02:22.000Z,95709.09
2023-02-21T22:04:53.475Z,95704.22
2023-02-21T22:07:23.127Z,95709.09
2023-02-21T22:09:51.568Z,95702.91
2023-02-21T22:12:21.311Z,95699.16
2023-02-21T22:14:50.569Z,95702.13
2023-02-21T22:17:19.038Z,95587.59
2023-02-21T22:19:48.982Z,95698.31
2023-02-21T22:22:17.829Z,95695.09
2023-02-21T22:24:46.343Z,95669.19
2023-02-21T22:27:14.792Z,95687.00
2023-02-21T22:29:43.135Z,95680.00
2023-02-21T22:32:11.604Z,95684.28
2023-02-21T22:34:39.920Z,95684.56
2023-02-21T22:37:10.657Z,95670.56
2023-02-21T22:39:39.698Z,95682.69
2023-02-21T22:42:08.937Z,95679.44
2023-02-21T22:44:37.820Z,95677.28
2023-02-21T22:47:06.596Z,95684.81
2023-02-21T22:49:34.992Z,95658.16
2023-02-21T22:52:05.490Z,95674.06
2023-02-21T22:54:35.215Z,95670.63
2023-02-21T22:57:04.165Z,95675.97
2023-02-21T22:59:35.512Z,95669.22
2023-02-21T23:02:04.471Z,95649.56
2023-02-21T23:04:36.727Z,95660.91
2023-02-21T23:07:06.416Z,95664.38
2023-02-21T23:09:37.324Z,95660.63
2023-02-21T23:12:07.432Z,95636.38
2023-02-21T23:14:36.160Z,95653.91
2023-02-21T23:17:05.154Z,95654.47
2023-02-21T23:19:33.477Z,95668.69
2023-02-21T23:22:03.933Z,95626.16
2023-02-21T23:24:32.312Z,95653.91
2023-02-21T23:27:03.094Z,95646.66
2023-02-21T23:29:31.568Z,95649.13
2023-02-21T23:32:10.040Z,95636.47
2023-02-21T23:34:41.752Z,95627.56
2023-02-21T23:37:12.935Z,95636.19
2023-02-21T23:39:42.471Z,95644.50
2023-02-21T23:42:12.217Z,95633.47
2023-02-21T23:44:41.355Z,95632.41
2023-02-21T23:47:09.819Z,95627.78
2023-02-21T23:49:44.375Z,95617.78
2023-02-21T23:52:12.826Z,95622.06
2023-02-21T23:54:42.044Z,95625.81
2023-02-21T23:57:11.827Z,95625.47
2023-02-21T23:59:40.143Z,95596.34
